Time;durP1;ratioP1;P1;durP2;ratioP2;P2;SDS_P1;SDS_P2;PMS_P1;PMS_P2;Temp;Humidity;BMP_temperature;BMP_pressure;BME280_temperature;BME280_humidity;BME280_pressure;Samples;Min_cycle;Max_cycle;Signal;HPM_P1;HPM_P2
2023/10/31 00:01:06;;;;;;;17.30;12.27;;;12.30;99.90;;;;;;5018723;28;20213;-88
2023/10/31 00:03:33;;;;;;;18.47;12.80;;;12.10;99.90;;;;;;5019267;28;20170;-86
2023/10/31 00:06:02;;;;;;;13.40;11.07;;;12.10;99.90;;;;;;5019181;28;20289;-83
2023/10/31 00:08:28;;;;;;;14.47;10.87;;;12.00;99.90;;;;;;5019686;28;20174;-88
2023/10/31 00:10:53;;;;;;;13.97;10.57;;;12.20;99.90;;;;;;5019824;28;20220;-83
2023/10/31 00:13:19;;;;;;;14.93;10.37;;;12.10;99.90;;;;;;5019431;28;20645;-87
2023/10/31 00:15:45;;;;;;;13.40;9.63;;;12.10;99.90;;;;;;5023205;28;20226;-87
2023/10/31 00:18:10;;;;;;;12.40;8.90;;;12.10;99.90;;;;;;5038597;28;20181;-86
2023/10/31 00:20:36;;;;;;;13.80;9.60;;;12.10;99.90;;;;;;5038430;28;20665;-86
2023/10/31 00:23:02;;;;;;;12.10;9.20;;;12.20;99.90;;;;;;5037560;28;20265;-84
2023/10/31 00:25:27;;;;;;;11.80;9.23;;;12.00;99.90;;;;;;5039361;28;20174;-81
2023/10/31 00:27:53;;;;;;;12.13;9.33;;;12.10;99.90;;;;;;5035457;28;20182;-87
2023/10/31 00:30:21;;;;;;;10.93;8.60;;;11.90;99.90;;;;;;5051965;28;20623;-83
2023/10/31 00:32:46;;;;;;;12.80;8.50;;;11.90;99.90;;;;;;5052390;28;20177;-80
2023/10/31 00:35:13;;;;;;;12.03;9.40;;;11.90;99.90;;;;;;5054021;28;20177;-79
2023/10/31 00:37:45;;;;;;;10.37;8.23;;;11.90;99.90;;;;;;5041034;28;20177;-82
2023/10/31 00:40:12;;;;;;;12.20;8.77;;;11.90;99.90;;;;;;5000838;28;20167;-87
2023/10/31 00:42:41;;;;;;;9.07;8.17;;;11.90;99.90;;;;;;5000636;28;20165;-87
2023/10/31 00:45:09;;;;;;;10.33;8.33;;;11.90;99.90;;;;;;5000484;28;20528;-85
2023/10/31 00:47:34;;;;;;;9.87;8.10;;;11.90;99.90;;;;;;5001763;28;20557;-83
2023/10/31 00:50:00;;;;;;;10.87;8.13;;;11.80;99.90;;;;;;5000192;28;20315;-86
2023/10/31 00:52:32;;;;;;;10.20;8.27;;;11.80;99.90;;;;;;4998939;28;20198;-84
2023/10/31 00:54:58;;;;;;;9.97;7.73;;;11.80;99.90;;;;;;4998199;28;20188;-79
2023/10/31 00:57:23;;;;;;;10.47;8.17;;;11.80;99.90;;;;;;5001071;28;20170;-80
2023/10/31 00:59:49;;;;;;;9.23;7.83;;;11.80;99.90;;;;;;5000245;28;20191;-83
2023/10/31 01:02:15;;;;;;;8.10;7.20;;;11.80;99.90;;;;;;5000595;28;20206;-84
2023/10/31 01:04:40;;;;;;;10.07;8.07;;;11.80;99.90;;;;;;4999959;28;20185;-81
2023/10/31 01:07:06;;;;;;;11.27;8.50;;;11.80;99.90;;;;;;4998748;28;20183;-80
2023/10/31 01:09:32;;;;;;;10.60;7.83;;;11.90;99.90;;;;;;5000331;28;20205;-82
2023/10/31 01:11:57;;;;;;;8.50;7.23;;;12.00;99.90;;;;;;4998000;28;20208;-85
2023/10/31 01:14:23;;;;;;;10.97;8.00;;;11.80;99.90;;;;;;5000145;28;20186;-83
2023/10/31 01:16:49;;;;;;;8.50;7.60;;;11.90;99.90;;;;;;4999856;28;20644;-84
2023/10/31 01:19:14;;;;;;;8.93;7.00;;;11.90;99.90;;;;;;4996761;28;20200;-79
2023/10/31 01:21:40;;;;;;;8.93;7.23;;;12.10;99.90;;;;;;4996926;28;20635;-86
2023/10/31 01:24:06;;;;;;;9.20;7.30;;;12.00;99.90;;;;;;4994872;28;20565;-80
2023/10/31 01:26:32;;;;;;;8.90;7.70;;;12.00;99.90;;;;;;4994134;28;20177;-82
2023/10/31 01:28:58;;;;;;;10.13;7.60;;;12.00;99.90;;;;;;4995403;28;20191;-84
2023/10/31 01:31:24;;;;;;;8.67;7.67;;;11.90;99.90;;;;;;4997235;28;20173;-80
2023/10/31 01:33:50;;;;;;;9.37;8.13;;;12.00;99.90;;;;;;4995131;28;20176;-81
2023/10/31 01:36:18;;;;;;;9.87;7.33;;;11.90;99.90;;;;;;4995257;28;20208;-82
2023/10/31 01:38:46;;;;;;;10.77;7.60;;;11.90;99.90;;;;;;5006822;28;20205;-83
2023/10/31 01:41:12;;;;;;;12.70;8.10;;;11.90;99.90;;;;;;5034990;28;20189;-82
2023/10/31 01:43:38;;;;;;;9.47;7.63;;;11.90;99.90;;;;;;5035533;28;20179;-82
2023/10/31 01:46:05;;;;;;;11.13;6.93;;;11.80;99.90;;;;;;5034445;28;20210;-80
2023/10/31 01:48:32;;;;;;;9.43;7.83;;;12.00;99.90;;;;;;5036211;28;20178;-83
2023/10/31 01:51:01;;;;;;;9.03;7.40;;;11.80;99.90;;;;;;5037006;28;20234;-81
2023/10/31 01:53:28;;;;;;;8.60;7.40;;;11.80;99.90;;;;;;5035565;28;20183;-84
2023/10/31 01:55:55;;;;;;;11.67;8.13;;;11.80;99.90;;;;;;5033538;28;20188;-84
2023/10/31 01:58:23;;;;;;;9.77;7.57;;;11.80;99.90;;;;;;5034084;28;20180;-83
2023/10/31 02:00:51;;;;;;;10.60;7.90;;;11.80;99.90;;;;;;5036117;28;20263;-82
2023/10/31 02:03:18;;;;;;;8.67;7.40;;;11.70;99.90;;;;;;5036276;28;20184;-81
2023/10/31 02:05:44;;;;;;;11.17;7.87;;;11.80;99.90;;;;;;5035156;28;20177;-82
2023/10/31 02:08:10;;;;;;;8.33;7.43;;;11.80;99.90;;;;;;5035015;28;20180;-83
2023/10/31 02:10:39;;;;;;;10.07;8.13;;;11.80;99.90;;;;;;4978932;28;20221;-79
2023/10/31 02:13:12;;;;;;;9.77;8.00;;;11.80;99.90;;;;;;4998265;28;20176;-82
2023/10/31 02:15:38;;;;;;;10.03;8.27;;;11.70;99.90;;;;;;4994128;28;20182;-83
2023/10/31 02:18:04;;;;;;;11.43;8.30;;;11.70;99.90;;;;;;4996054;28;20173;-79
2023/10/31 02:20:30;;;;;;;9.50;8.30;;;11.60;99.90;;;;;;4993947;28;20181;-82
2023/10/31 02:22:55;;;;;;;8.73;7.83;;;11.70;99.90;;;;;;4993604;28;20708;-80
2023/10/31 02:25:22;;;;;;;10.03;8.13;;;11.80;99.90;;;;;;4994421;28;20255;-81
2023/10/31 02:27:48;;;;;;;8.90;8.07;;;11.80;99.90;;;;;;5014717;28;20215;-81
2023/10/31 02:30:14;;;;;;;9.87;7.37;;;11.80;99.90;;;;;;5028126;28;20239;-82
2023/10/31 02:32:40;;;;;;;9.37;8.27;;;11.90;99.90;;;;;;5031682;28;20181;-82
2023/10/31 02:35:07;;;;;;;14.53;7.50;;;11.80;99.90;;;;;;5024687;28;20176;-83
2023/10/31 02:37:32;;;;;;;8.53;7.23;;;11.70;99.90;;;;;;5014797;28;20647;-83
2023/10/31 02:39:59;;;;;;;10.03;7.60;;;11.70;99.90;;;;;;5012984;28;20187;-80
2023/10/31 02:42:27;;;;;;;8.27;7.37;;;11.70;99.90;;;;;;4999821;28;20551;-81
2023/10/31 02:44:53;;;;;;;9.10;7.90;;;11.60;99.90;;;;;;5007054;28;20187;-78
2023/10/31 02:47:19;;;;;;;8.83;7.40;;;11.60;99.90;;;;;;5014111;28;20562;-84
2023/10/31 02:49:45;;;;;;;10.77;7.90;;;11.60;99.90;;;;;;5015055;28;20221;-80
2023/10/31 02:52:11;;;;;;;8.83;7.93;;;11.50;99.90;;;;;;5017391;28;20184;-83
2023/10/31 02:54:37;;;;;;;9.40;8.23;;;11.60;99.90;;;;;;5000481;28;20222;-83
2023/10/31 02:57:04;;;;;;;9.53;8.20;;;11.40;99.90;;;;;;4996977;28;20188;-83
2023/10/31 02:59:30;;;;;;;9.27;8.27;;;11.50;99.90;;;;;;5011321;28;20202;-83
2023/10/31 03:01:57;;;;;;;11.07;7.87;;;11.50;99.90;;;;;;5012127;28;20187;-80
2023/10/31 03:04:23;;;;;;;8.60;7.80;;;11.50;99.90;;;;;;5018832;28;20649;-82
2023/10/31 03:06:50;;;;;;;11.13;7.97;;;11.40;99.90;;;;;;5017472;28;20170;-82
2023/10/31 03:09:16;;;;;;;8.17;7.23;;;11.40;99.90;;;;;;5015789;28;20180;-82
2023/10/31 03:11:41;;;;;;;9.13;7.40;;;11.50;99.90;;;;;;5015367;28;20291;-81
2023/10/31 03:14:07;;;;;;;9.27;7.70;;;11.50;99.90;;;;;;5016417;28;20574;-83
2023/10/31 03:16:33;;;;;;;10.17;7.90;;;11.60;99.90;;;;;;5016969;28;20181;-81
2023/10/31 03:18:59;;;;;;;10.20;8.43;;;11.50;99.90;;;;;;5016204;28;20673;-80
2023/10/31 03:21:25;;;;;;;9.97;8.90;;;11.50;99.90;;;;;;5016781;28;20263;-81
2023/10/31 03:23:52;;;;;;;9.37;8.47;;;11.40;99.90;;;;;;5020143;28;20344;-82
2023/10/31 03:26:18;;;;;;;12.00;9.40;;;11.40;99.90;;;;;;5018129;28;20167;-82
2023/10/31 03:28:45;;;;;;;10.63;9.53;;;11.40;99.90;;;;;;5016592;28;20255;-81
2023/10/31 03:31:11;;;;;;;11.73;10.47;;;11.40;99.90;;;;;;5017561;28;20213;-82
2023/10/31 03:33:37;;;;;;;12.10;10.63;;;11.40;99.90;;;;;;5017134;28;20179;-83
2023/10/31 03:36:04;;;;;;;10.97;9.87;;;11.40;99.90;;;;;;5017114;28;20240;-83
2023/10/31 03:38:33;;;;;;;14.40;10.47;;;11.30;99.90;;;;;;5016342;28;20187;-82
2023/10/31 03:40:59;;;;;;;11.27;10.17;;;11.20;99.90;;;;;;5033369;28;20182;-81
2023/10/31 03:43:25;;;;;;;13.43;10.47;;;11.40;99.90;;;;;;5017474;28;20170;-80
2023/10/31 03:45:54;;;;;;;11.60;10.40;;;11.40;99.90;;;;;;5017829;28;20238;-79
2023/10/31 03:48:21;;;;;;;12.00;10.80;;;11.40;99.90;;;;;;5018288;28;20192;-79
2023/10/31 03:50:47;;;;;;;12.50;11.20;;;11.30;99.90;;;;;;5017464;28;20649;-83
2023/10/31 03:53:13;;;;;;;13.40;11.13;;;11.30;99.90;;;;;;5019244;28;20242;-81
2023/10/31 03:55:38;;;;;;;13.07;11.00;;;11.30;99.90;;;;;;5018619;28;20214;-81
2023/10/31 03:58:05;;;;;;;12.43;11.13;;;11.30;99.90;;;;;;5017684;28;20213;-80
2023/10/31 04:00:32;;;;;;;15.43;11.40;;;11.30;99.90;;;;;;5003545;28;20284;-83
2023/10/31 04:02:58;;;;;;;13.20;10.70;;;11.30;99.90;;;;;;5031094;28;20170;-81
2023/10/31 04:05:24;;;;;;;10.57;9.53;;;11.30;99.90;;;;;;5001853;28;20170;-83
2023/10/31 04:07:50;;;;;;;12.40;11.00;;;11.30;99.90;;;;;;5042222;28;20197;-78
2023/10/31 04:10:18;;;;;;;12.97;10.97;;;11.30;99.90;;;;;;5012491;28;20210;-77
2023/10/31 04:12:44;;;;;;;16.13;12.27;;;11.20;99.90;;;;;;5012337;28;20178;-79
2023/10/31 04:15:10;;;;;;;12.77;11.47;;;11.30;99.90;;;;;;5008862;28;20681;-79
2023/10/31 04:17:36;;;;;;;12.93;10.60;;;11.20;99.90;;;;;;5004957;28;20189;-80
2023/10/31 04:20:02;;;;;;;13.07;11.27;;;11.20;99.90;;;;;;5035699;28;20186;-79
2023/10/31 04:22:27;;;;;;;12.13;10.93;;;11.20;99.90;;;;;;5015503;28;20203;-81
2023/10/31 04:24:56;;;;;;;13.10;11.63;;;11.20;99.90;;;;;;5001846;28;20189;-81
2023/10/31 04:27:25;;;;;;;13.53;11.43;;;11.10;99.90;;;;;;5034004;28;20179;-79
2023/10/31 04:29:54;;;;;;;14.40;12.23;;;11.10;99.90;;;;;;5033003;28;20231;-79
2023/10/31 04:32:19;;;;;;;14.53;12.40;;;11.10;99.90;;;;;;5037636;28;20162;-81
2023/10/31 04:34:46;;;;;;;13.43;12.03;;;11.10;99.90;;;;;;5037359;28;20175;-82
2023/10/31 04:37:12;;;;;;;14.33;12.17;;;11.10;99.90;;;;;;5036979;28;20176;-82
2023/10/31 04:39:37;;;;;;;15.37;12.27;;;11.10;99.90;;;;;;5037258;28;20183;-80
2023/10/31 04:42:05;;;;;;;15.63;13.43;;;11.20;99.90;;;;;;5038270;28;20168;-82
2023/10/31 04:44:32;;;;;;;16.30;13.40;;;11.20;99.90;;;;;;5036253;28;20175;-80
2023/10/31 04:46:58;;;;;;;17.73;14.53;;;11.30;99.90;;;;;;5036291;28;20203;-81
2023/10/31 04:49:25;;;;;;;17.20;14.13;;;11.40;99.90;;;;;;5039073;28;20197;-81
2023/10/31 04:51:50;;;;;;;19.53;14.17;;;11.40;99.90;;;;;;5050782;28;20163;-79
2023/10/31 04:54:16;;;;;;;17.80;14.27;;;11.40;99.90;;;;;;5057112;28;20684;-81
2023/10/31 04:56:43;;;;;;;17.63;14.10;;;11.40;99.90;;;;;;5055447;28;20178;-79
2023/10/31 04:59:09;;;;;;;17.47;15.30;;;11.40;99.90;;;;;;5047288;28;20186;-82
2023/10/31 05:01:34;;;;;;;17.87;15.20;;;11.50;99.90;;;;;;5005080;28;20652;-80
2023/10/31 05:04:00;;;;;;;20.30;15.37;;;11.60;99.90;;;;;;4999664;28;20179;-79
2023/10/31 05:06:26;;;;;;;19.53;14.43;;;11.50;99.90;;;;;;4997180;28;20233;-79
2023/10/31 05:08:55;;;;;;;18.87;16.07;;;11.50;99.90;;;;;;5001086;28;20200;-83
2023/10/31 05:11:22;;;;;;;18.10;16.03;;;11.50;99.90;;;;;;4998986;28;20219;-79
2023/10/31 05:14:12;;;;;;;16.93;14.60;;;11.50;99.90;;;;;;4995363;28;20181;-79
2023/10/31 05:16:44;;;;;;;18.63;15.83;;;11.50;99.90;;;;;;4997071;28;20262;-82
2023/10/31 05:19:12;;;;;;;16.27;14.53;;;11.40;99.90;;;;;;5024816;28;20677;-83
2023/10/31 05:21:38;;;;;;;16.07;14.03;;;11.50;99.90;;;;;;5017678;28;20173;-82
2023/10/31 05:24:05;;;;;;;18.00;14.63;;;11.50;99.90;;;;;;5016236;28;20172;-79
2023/10/31 05:26:30;;;;;;;18.03;15.37;;;11.60;99.90;;;;;;5017053;28;20171;-80
2023/10/31 05:28:57;;;;;;;15.73;14.13;;;11.60;99.90;;;;;;5017798;28;20175;-80
2023/10/31 05:31:24;;;;;;;14.83;13.17;;;11.50;99.90;;;;;;5017301;28;20213;-79
2023/10/31 05:33:52;;;;;;;15.83;14.07;;;11.50;99.90;;;;;;5020905;28;20270;-82
2023/10/31 05:36:20;;;;;;;15.07;13.10;;;11.40;99.90;;;;;;5035042;28;20181;-80
2023/10/31 05:38:45;;;;;;;15.47;13.87;;;11.40;99.90;;;;;;5031120;28;20180;-80
2023/10/31 05:41:11;;;;;;;18.47;14.00;;;11.50;99.90;;;;;;5033985;28;20244;-79
2023/10/31 05:43:38;;;;;;;16.13;14.43;;;11.60;99.90;;;;;;5033844;28;20254;-81
2023/10/31 05:46:05;;;;;;;17.57;14.87;;;11.50;99.90;;;;;;5033573;28;20165;-82
2023/10/31 05:48:32;;;;;;;16.37;14.67;;;11.40;99.90;;;;;;5032582;28;20204;-82
2023/10/31 05:51:04;;;;;;;18.03;15.87;;;11.50;99.90;;;;;;5033695;28;20236;-79
2023/10/31 05:53:32;;;;;;;15.60;14.00;;;11.40;99.90;;;;;;5033523;28;20173;-81
2023/10/31 05:55:58;;;;;;;19.27;14.87;;;11.40;99.90;;;;;;5033806;28;20552;-82
2023/10/31 05:58:23;;;;;;;15.80;13.83;;;11.50;99.90;;;;;;5034953;28;20162;-80
2023/10/31 06:00:51;;;;;;;16.27;14.53;;;11.50;99.90;;;;;;5010418;28;20664;-79
2023/10/31 06:03:18;;;;;;;17.10;13.53;;;11.50;99.90;;;;;;4996439;28;20171;-82
2023/10/31 06:05:45;;;;;;;13.97;12.50;;;11.50;99.90;;;;;;4993454;28;20251;-82
2023/10/31 06:08:10;;;;;;;15.33;12.80;;;11.70;99.90;;;;;;4994174;28;20259;-82
2023/10/31 06:10:36;;;;;;;14.47;12.77;;;11.60;99.90;;;;;;4995680;28;20244;-84
2023/10/31 06:13:01;;;;;;;13.57;12.17;;;11.50;99.90;;;;;;4995406;28;20612;-80
2023/10/31 06:15:27;;;;;;;14.63;11.87;;;11.50;99.90;;;;;;4996385;28;20188;-80
2023/10/31 06:17:53;;;;;;;16.67;12.03;;;11.50;99.90;;;;;;4996369;28;20176;-82
2023/10/31 06:20:19;;;;;;;13.03;11.50;;;11.70;99.90;;;;;;4995594;28;20225;-81
2023/10/31 06:22:45;;;;;;;13.53;11.80;;;11.50;99.90;;;;;;5011214;28;20198;-82
2023/10/31 06:25:12;;;;;;;13.00;11.60;;;11.60;99.90;;;;;;4996479;28;20176;-80
2023/10/31 06:27:37;;;;;;;13.03;11.17;;;11.60;99.90;;;;;;5000284;28;20533;-82
2023/10/31 06:30:03;;;;;;;12.30;11.00;;;11.70;99.90;;;;;;4999301;28;20240;-82
2023/10/31 06:32:29;;;;;;;16.77;10.90;;;11.60;99.90;;;;;;5014290;28;20267;-82
2023/10/31 06:34:55;;;;;;;12.97;11.13;;;11.60;99.90;;;;;;4999937;28;20217;-80
2023/10/31 06:37:20;;;;;;;12.63;11.30;;;11.50;99.90;;;;;;4999303;28;20178;-82
2023/10/31 06:39:46;;;;;;;14.13;11.00;;;11.50;99.90;;;;;;5014190;28;20654;-81
2023/10/31 06:42:11;;;;;;;12.90;11.30;;;11.50;99.90;;;;;;4998501;28;20709;-81
2023/10/31 06:44:37;;;;;;;13.50;11.40;;;11.40;99.90;;;;;;4999404;28;20198;-79
2023/10/31 06:47:06;;;;;;;12.77;11.17;;;11.40;99.90;;;;;;4999562;28;20601;-78
2023/10/31 06:49:31;;;;;;;12.30;11.10;;;11.40;99.90;;;;;;5002023;28;20209;-81
2023/10/31 06:51:58;;;;;;;13.07;11.10;;;11.40;99.90;;;;;;5000803;28;20208;-80
2023/10/31 06:54:27;;;;;;;11.70;10.50;;;11.50;99.90;;;;;;5007335;28;20179;-78
2023/10/31 06:56:52;;;;;;;11.20;9.93;;;11.50;99.90;;;;;;5018524;28;20182;-81
2023/10/31 06:59:18;;;;;;;10.83;9.73;;;11.50;99.90;;;;;;5016380;28;20221;-80
2023/10/31 07:01:45;;;;;;;11.40;10.27;;;11.50;99.90;;;;;;5008908;28;20197;-81
2023/10/31 07:04:10;;;;;;;11.13;9.50;;;11.60;99.90;;;;;;5013235;28;20165;-80
2023/10/31 07:06:36;;;;;;;10.83;9.53;;;11.50;99.90;;;;;;5017768;28;20182;-80
2023/10/31 07:09:05;;;;;;;9.50;8.43;;;11.40;99.90;;;;;;5014624;28;20185;-79
2023/10/31 07:11:33;;;;;;;10.13;9.03;;;11.50;99.90;;;;;;5011903;28;20706;-79
2023/10/31 07:14:02;;;;;;;9.30;8.30;;;11.40;99.90;;;;;;5003079;28;20178;-81
2023/10/31 07:16:32;;;;;;;12.37;8.90;;;11.40;99.90;;;;;;5001956;28;20182;-80
2023/10/31 07:19:01;;;;;;;9.60;8.43;;;11.30;99.90;;;;;;5017560;28;20171;-79
2023/10/31 07:21:28;;;;;;;9.87;8.83;;;11.40;99.90;;;;;;5002210;28;20186;-80
2023/10/31 07:23:53;;;;;;;10.10;9.03;;;11.40;99.90;;;;;;5002577;28;20181;-81
2023/10/31 07:26:23;;;;;;;11.43;8.90;;;11.40;99.90;;;;;;5001908;28;20269;-81
2023/10/31 07:29:14;;;;;;;11.80;9.50;;;11.40;99.90;;;;;;5001015;28;20179;-81
2023/10/31 07:31:48;;;;;;;10.03;8.77;;;11.40;99.90;;;;;;5014977;28;20182;-83
2023/10/31 07:34:17;;;;;;;9.97;8.97;;;11.50;99.90;;;;;;5019710;28;20165;-81
2023/10/31 07:36:42;;;;;;;11.27;8.80;;;11.40;99.90;;;;;;5018164;28;20171;-80
2023/10/31 07:39:08;;;;;;;12.80;9.00;;;11.50;99.90;;;;;;5006353;28;20706;-81
2023/10/31 07:41:33;;;;;;;10.67;9.00;;;11.60;99.90;;;;;;5009104;28;20181;-80
2023/10/31 07:43:59;;;;;;;9.63;8.63;;;11.60;99.90;;;;;;4999003;28;20180;-81
2023/10/31 07:46:25;;;;;;;12.47;8.63;;;11.70;99.90;;;;;;5013831;28;20186;-81
2023/10/31 07:48:50;;;;;;;10.07;8.90;;;11.70;99.90;;;;;;5013789;28;20193;-84
2023/10/31 07:51:16;;;;;;;10.70;8.97;;;11.70;99.90;;;;;;4996639;28;20217;-80
2023/10/31 07:53:42;;;;;;;10.27;9.17;;;11.60;99.90;;;;;;4999371;28;20185;-81
2023/10/31 07:56:22;;;;;;;11.43;8.60;;;11.70;99.90;;;;;;5016532;28;20192;-79
2023/10/31 07:58:49;;;;;;;9.23;7.63;;;11.70;99.90;;;;;;5018782;28;20645;-84
2023/10/31 08:01:17;;;;;;;9.30;7.40;;;11.80;99.90;;;;;;5017818;28;20184;-82
2023/10/31 08:03:43;;;;;;;10.23;6.90;;;11.60;99.90;;;;;;5019352;28;20244;-83
2023/10/31 08:06:11;;;;;;;8.63;6.83;;;11.60;99.90;;;;;;5018391;28;20627;-80
2023/10/31 08:08:36;;;;;;;8.43;7.23;;;11.40;99.90;;;;;;5017825;28;20175;-83
2023/10/31 08:11:03;;;;;;;7.87;6.37;;;11.50;99.90;;;;;;5019474;28;20223;-80
2023/10/31 08:13:30;;;;;;;9.70;6.80;;;11.50;99.90;;;;;;5020036;28;20694;-83
2023/10/31 08:15:55;;;;;;;10.63;6.63;;;11.50;99.90;;;;;;5020272;28;20190;-82
2023/10/31 08:18:24;;;;;;;10.37;6.83;;;11.60;99.90;;;;;;5019247;28;20167;-80
2023/10/31 08:20:50;;;;;;;9.33;6.73;;;11.60;99.90;;;;;;5001892;28;20622;-82
2023/10/31 08:23:17;;;;;;;10.50;6.33;;;11.60;99.90;;;;;;5019258;28;20168;-82
2023/10/31 08:25:44;;;;;;;10.70;6.00;;;11.70;99.90;;;;;;5019276;28;20176;-82
2023/10/31 08:28:10;;;;;;;9.10;5.77;;;11.50;99.90;;;;;;5037112;28;20542;-80
2023/10/31 08:30:36;;;;;;;9.43;6.50;;;11.50;99.90;;;;;;5034104;28;20641;-80
2023/10/31 08:33:02;;;;;;;12.13;6.97;;;11.50;99.90;;;;;;5020958;28;20257;-85
2023/10/31 08:35:27;;;;;;;13.10;6.30;;;11.50;99.90;;;;;;5021199;28;20212;-81
2023/10/31 08:37:54;;;;;;;8.93;6.17;;;11.50;99.90;;;;;;5020058;28;20643;-80
2023/10/31 08:40:19;;;;;;;7.73;6.10;;;11.50;99.90;;;;;;5021624;28;20696;-84
2023/10/31 08:42:45;;;;;;;8.33;5.67;;;11.40;99.90;;;;;;5026546;28;20189;-82
2023/10/31 08:45:11;;;;;;;9.53;6.33;;;11.40;99.90;;;;;;5021985;28;20197;-83
2023/10/31 08:47:36;;;;;;;10.83;5.60;;;11.50;99.90;;;;;;5020925;28;20198;-82
2023/10/31 08:50:02;;;;;;;7.20;6.10;;;11.60;99.90;;;;;;5020978;28;20197;-84
2023/10/31 08:52:29;;;;;;;9.60;6.07;;;11.60;99.90;;;;;;5021999;28;20258;-79
2023/10/31 08:54:57;;;;;;;12.57;6.40;;;11.60;99.90;;;;;;5019886;28;20177;-83
2023/10/31 08:57:23;;;;;;;11.57;6.07;;;11.80;99.90;;;;;;5017527;28;20177;-82
2023/10/31 08:59:49;;;;;;;11.37;6.27;;;11.90;99.90;;;;;;5020538;28;20206;-82
2023/10/31 09:02:14;;;;;;;10.20;5.47;;;12.10;99.90;;;;;;5019114;28;20259;-79
2023/10/31 09:04:41;;;;;;;7.90;5.10;;;12.20;99.90;;;;;;5016888;28;20197;-81
2023/10/31 09:07:07;;;;;;;6.73;4.93;;;12.30;99.90;;;;;;5017492;28;20178;-85
2023/10/31 09:09:33;;;;;;;13.20;8.20;;;12.30;99.90;;;;;;5016066;28;20521;-80
2023/10/31 09:11:59;;;;;;;7.23;5.20;;;12.30;99.90;;;;;;5017643;28;20186;-82
2023/10/31 09:14:24;;;;;;;9.80;5.23;;;12.30;99.90;;;;;;5017486;28;20249;-82
2023/10/31 09:16:50;;;;;;;12.03;6.13;;;12.40;99.90;;;;;;5027856;28;20177;-81
2023/10/31 09:19:16;;;;;;;12.07;5.40;;;12.40;99.90;;;;;;5037498;28;20178;-85
2023/10/31 09:21:41;;;;;;;12.57;5.47;;;12.40;99.90;;;;;;5036707;28;20188;-81
2023/10/31 09:24:08;;;;;;;8.83;4.87;;;12.40;99.90;;;;;;5036056;28;20170;-82
2023/10/31 09:26:33;;;;;;;8.70;5.20;;;12.30;99.90;;;;;;5036748;28;20177;-86
2023/10/31 09:28:59;;;;;;;9.30;5.33;;;12.50;99.90;;;;;;5036866;28;20571;-83
2023/10/31 09:31:25;;;;;;;9.70;5.57;;;12.40;99.90;;;;;;5020763;28;20286;-83
2023/10/31 09:33:51;;;;;;;8.20;5.30;;;12.30;99.90;;;;;;4997334;28;20200;-83
2023/10/31 09:36:16;;;;;;;10.50;5.90;;;12.20;99.90;;;;;;5013413;28;20543;-82
2023/10/31 09:38:42;;;;;;;8.30;5.50;;;12.20;99.90;;;;;;5014738;28;20277;-80
2023/10/31 09:41:09;;;;;;;9.67;5.40;;;12.20;99.90;;;;;;4997256;28;20178;-82
2023/10/31 09:43:35;;;;;;;7.50;5.33;;;12.30;99.90;;;;;;5014102;28;20727;-82
2023/10/31 09:46:03;;;;;;;9.20;6.03;;;12.20;99.90;;;;;;5003637;28;20179;-82
2023/10/31 09:48:29;;;;;;;6.60;5.33;;;12.10;99.90;;;;;;4996051;28;20210;-82
2023/10/31 09:50:56;;;;;;;13.93;6.03;;;12.10;99.90;;;;;;4996616;28;20320;-81
2023/10/31 09:53:23;;;;;;;10.60;5.80;;;12.20;99.90;;;;;;4994958;28;20175;-80
2023/10/31 09:55:50;;;;;;;6.57;4.93;;;12.10;99.90;;;;;;5010997;28;20268;-82
2023/10/31 09:58:15;;;;;;;8.13;5.97;;;12.00;99.90;;;;;;4995860;28;20171;-83
2023/10/31 10:00:41;;;;;;;6.87;5.40;;;12.00;99.90;;;;;;4996177;28;20167;-84
2023/10/31 10:03:10;;;;;;;8.53;5.57;;;12.10;99.90;;;;;;5014271;28;20253;-82
2023/10/31 10:05:40;;;;;;;8.80;5.37;;;12.10;99.90;;;;;;5014908;28;20171;-83
2023/10/31 10:08:09;;;;;;;10.50;5.23;;;12.10;99.90;;;;;;5018059;28;20170;-81
2023/10/31 10:10:35;;;;;;;13.83;5.43;;;12.10;99.90;;;;;;5016589;28;20274;-83
2023/10/31 10:13:03;;;;;;;11.67;6.80;;;12.10;99.90;;;;;;5016606;28;20641;-85
2023/10/31 10:15:28;;;;;;;11.97;6.07;;;12.10;99.90;;;;;;5014297;28;20170;-82
2023/10/31 10:17:54;;;;;;;9.27;5.30;;;12.10;99.90;;;;;;5005539;28;20175;-82
2023/10/31 10:20:20;;;;;;;12.67;6.17;;;12.10;99.90;;;;;;4996079;28;20177;-85
2023/10/31 10:22:46;;;;;;;9.37;5.77;;;12.20;99.90;;;;;;4997760;28;20182;-84
2023/10/31 10:25:16;;;;;;;10.87;5.60;;;12.20;99.90;;;;;;4996061;28;20184;-82
2023/10/31 10:27:43;;;;;;;10.13;5.10;;;12.30;99.90;;;;;;4998212;28;20549;-80
2023/10/31 10:30:11;;;;;;;9.60;5.10;;;12.30;99.90;;;;;;5013839;28;20263;-81
2023/10/31 10:32:36;;;;;;;7.67;5.13;;;12.20;99.90;;;;;;5015039;28;20184;-81
2023/10/31 10:35:02;;;;;;;9.57;5.70;;;12.30;99.90;;;;;;5016753;28;20264;-82
2023/10/31 10:37:30;;;;;;;13.97;5.00;;;12.00;99.90;;;;;;5016798;28;20174;-80
2023/10/31 10:39:56;;;;;;;9.97;6.33;;;12.00;99.90;;;;;;4997860;28;20183;-83
2023/10/31 10:42:36;;;;;;;12.10;6.37;;;12.10;99.90;;;;;;4980771;28;20249;-82
2023/10/31 10:45:04;;;;;;;8.17;5.30;;;12.10;99.90;;;;;;4996630;28;20177;-82
2023/10/31 10:47:32;;;;;;;10.03;5.70;;;12.20;99.90;;;;;;5030658;28;20210;-83
2023/10/31 10:50:02;;;;;;;11.37;5.93;;;12.30;99.90;;;;;;5006894;28;20229;-83
2023/10/31 10:52:36;;;;;;;11.23;5.80;;;12.20;99.90;;;;;;5023948;28;20182;-81
2023/10/31 10:55:08;;;;;;;8.73;5.13;;;12.10;99.90;;;;;;5031626;28;20182;-80
2023/10/31 10:57:42;;;;;;;11.77;6.07;;;12.20;99.90;;;;;;5032259;28;20170;-81
2023/10/31 11:00:09;;;;;;;11.93;5.27;;;12.30;99.90;;;;;;5029790;28;20202;-81
2023/10/31 11:02:36;;;;;;;9.30;6.10;;;12.40;99.90;;;;;;5017447;28;20186;-81
2023/10/31 11:05:07;;;;;;;10.80;6.57;;;12.40;99.90;;;;;;5019712;28;20208;-81
2023/10/31 11:07:33;;;;;;;8.97;6.17;;;12.50;99.90;;;;;;5020411;28;20177;-80
2023/10/31 11:10:02;;;;;;;9.83;6.70;;;12.40;99.90;;;;;;5018143;28;20224;-84
2023/10/31 11:12:36;;;;;;;9.83;6.33;;;12.40;99.90;;;;;;5009204;28;20179;-84
2023/10/31 11:15:04;;;;;;;11.30;6.80;;;12.30;99.90;;;;;;5001542;28;20189;-81
2023/10/31 11:17:41;;;;;;;12.17;7.47;;;12.30;99.90;;;;;;5002218;28;20202;-80
2023/10/31 11:20:10;;;;;;;12.80;8.00;;;12.20;99.90;;;;;;5000611;28;20163;-82
2023/10/31 11:22:48;;;;;;;15.20;8.67;;;12.30;99.90;;;;;;5020162;28;20208;-81
2023/10/31 11:25:20;;;;;;;13.97;9.57;;;12.30;99.90;;;;;;5007371;28;20192;-80
2023/10/31 11:27:45;;;;;;;19.07;9.87;;;12.30;99.90;;;;;;5022192;28;20178;-87
2023/10/31 11:30:21;;;;;;;15.83;9.73;;;12.40;99.90;;;;;;5015075;28;20632;-87
2023/10/31 11:32:54;;;;;;;17.17;10.33;;;12.30;99.90;;;;;;5018393;28;20176;-83
2023/10/31 11:35:21;;;;;;;14.23;9.87;;;12.30;99.90;;;;;;5021720;28;20178;-83
2023/10/31 11:38:00;;;;;;;15.23;10.60;;;12.40;99.90;;;;;;5010972;28;20644;-80
2023/10/31 11:40:26;;;;;;;14.80;10.93;;;12.40;99.90;;;;;;5011162;28;20261;-83
2023/10/31 11:42:56;;;;;;;20.63;12.93;;;12.40;99.90;;;;;;5021335;28;20208;-85
2023/10/31 11:45:30;;;;;;;19.07;12.10;;;12.40;99.90;;;;;;5030167;28;20182;-80
2023/10/31 11:47:57;;;;;;;19.03;13.23;;;12.40;99.90;;;;;;5032698;28;20189;-80
2023/10/31 11:50:23;;;;;;;17.73;13.23;;;12.40;99.90;;;;;;5015598;28;20280;-81
2023/10/31 11:53:04;;;;;;;17.40;13.77;;;12.30;99.90;;;;;;5028876;28;20159;-82
2023/10/31 11:55:37;;;;;;;21.27;13.83;;;12.30;99.90;;;;;;5017988;28;20170;-79
2023/10/31 11:58:16;;;;;;;18.67;12.43;;;12.30;99.90;;;;;;5007602;28;20206;-82
2023/10/31 12:00:42;;;;;;;14.83;12.37;;;12.30;99.90;;;;;;5021502;28;20169;-80
2023/10/31 12:03:08;;;;;;;17.60;13.13;;;12.30;99.90;;;;;;5020595;28;20192;-84
2023/10/31 12:05:34;;;;;;;17.67;13.23;;;12.30;99.90;;;;;;5018438;28;20249;-80
2023/10/31 12:08:00;;;;;;;16.40;12.17;;;12.20;99.90;;;;;;5005613;28;20190;-82
2023/10/31 12:10:29;;;;;;;18.30;12.10;;;12.20;99.90;;;;;;5016427;28;20286;-80
2023/10/31 12:12:56;;;;;;;13.77;10.17;;;12.20;99.90;;;;;;5031024;28;20663;-80
2023/10/31 12:15:22;;;;;;;14.73;9.83;;;12.20;99.90;;;;;;5007274;28;20174;-81
2023/10/31 12:17:49;;;;;;;16.87;10.67;;;12.20;99.90;;;;;;5013541;28;20208;-83
2023/10/31 12:20:16;;;;;;;14.90;9.93;;;12.20;99.90;;;;;;5015257;28;20185;-83
2023/10/31 12:22:42;;;;;;;14.50;9.80;;;12.20;99.90;;;;;;5015416;28;20240;-82
2023/10/31 12:25:09;;;;;;;15.13;9.43;;;12.10;99.90;;;;;;5012736;28;20180;-80
2023/10/31 12:27:50;;;;;;;16.37;9.13;;;12.10;99.90;;;;;;5013944;28;20584;-81
2023/10/31 12:30:20;;;;;;;12.53;9.07;;;12.20;99.90;;;;;;5014903;28;20198;-82
2023/10/31 12:32:54;;;;;;;12.07;8.00;;;12.20;99.90;;;;;;5015353;28;20162;-82
2023/10/31 12:35:22;;;;;;;11.93;9.17;;;12.30;99.90;;;;;;5015402;28;20174;-80